sensor_id;sensor_type;location;lat;lon;timestamp;pressure;altitude;pressure_sealevel;temperature;humidity
10064;BME280;5071;52.360;13.134;2023-03-04T00:02:43;101401.38;;;1.10;95.54
10064;BME280;5071;52.360;13.134;2023-03-04T00:07:46;101410.75;;;1.04;95.64
10064;BME280;5071;52.360;13.134;2023-03-04T00:12:49;101410.41;;;0.94;95.90
10064;BME280;5071;52.360;13.134;2023-03-04T00:17:51;101411.56;;;1.03;95.97
10064;BME280;5071;52.360;13.134;2023-03-04T00:22:54;101401.09;;;1.03;96.06
10064;BME280;5071;52.360;13.134;2023-03-04T00:27:56;101403.19;;;1.11;96.14
10064;BME280;5071;52.360;13.134;2023-03-04T00:32:58;101387.09;;;1.25;95.72
10064;BME280;5071;52.360;13.134;2023-03-04T00:38:01;101388.75;;;1.47;95.11
10064;BME280;5071;52.360;13.134;2023-03-04T00:43:03;101377.81;;;1.59;94.78
10064;BME280;5071;52.360;13.134;2023-03-04T00:48:05;101367.56;;;1.90;93.69
10064;BME280;5071;52.360;13.134;2023-03-04T00:53:09;101374.22;;;2.08;92.69
10064;BME280;5071;52.360;13.134;2023-03-04T00:58:11;101374.63;;;2.20;91.80
10064;BME280;5071;52.360;13.134;2023-03-04T01:03:14;101362.22;;;2.14;91.53
10064;BME280;5071;52.360;13.134;2023-03-04T01:08:17;101358.16;;;2.24;91.30
10064;BME280;5071;52.360;13.134;2023-03-04T01:13:19;101346.94;;;2.28;90.51
10064;BME280;5071;52.360;13.134;2023-03-04T01:18:22;101349.56;;;2.28;90.49
10064;BME280;5071;52.360;13.134;2023-03-04T01:23:25;101351.34;;;2.29;90.54
10064;BME280;5071;52.360;13.134;2023-03-04T01:28:27;101351.63;;;2.39;89.83
10064;BME280;5071;52.360;13.134;2023-03-04T01:33:29;101319.63;;;2.20;90.32
10064;BME280;5071;52.360;13.134;2023-03-04T01:38:33;101320.84;;;2.31;90.30
10064;BME280;5071;52.360;13.134;2023-03-04T01:43:36;101314.84;;;2.36;89.94
10064;BME280;5071;52.360;13.134;2023-03-04T01:48:39;101311.47;;;2.40;89.90
10064;BME280;5071;52.360;13.134;2023-03-04T01:53:44;101308.97;;;2.43;89.82
10064;BME280;5071;52.360;13.134;2023-03-04T01:59:05;101294.28;;;2.48;89.81
10064;BME280;5071;52.360;13.134;2023-03-04T02:04:08;101293.84;;;2.63;89.17
10064;BME280;5071;52.360;13.134;2023-03-04T02:09:12;101269.19;;;2.56;89.34
10064;BME280;5071;52.360;13.134;2023-03-04T02:14:17;101277.13;;;2.59;89.13
10064;BME280;5071;52.360;13.134;2023-03-04T02:19:30;101288.94;;;2.75;89.40
10064;BME280;5071;52.360;13.134;2023-03-04T02:24:40;101276.13;;;2.86;89.30
10064;BME280;5071;52.360;13.134;2023-03-04T02:29:46;101268.16;;;2.83;89.08
10064;BME280;5071;52.360;13.134;2023-03-04T02:34:49;101253.16;;;2.77;89.57
10064;BME280;5071;52.360;13.134;2023-03-04T02:39:53;101259.75;;;2.95;89.05
10064;BME280;5071;52.360;13.134;2023-03-04T02:45:00;101254.63;;;2.99;89.33
10064;BME280;5071;52.360;13.134;2023-03-04T02:50:03;101251.13;;;2.99;89.14
10064;BME280;5071;52.360;13.134;2023-03-04T02:55:06;101242.66;;;3.09;89.22
10064;BME280;5071;52.360;13.134;2023-03-04T03:00:11;101245.22;;;3.07;89.13
10064;BME280;5071;52.360;13.134;2023-03-04T03:05:13;101243.47;;;3.06;89.52
10064;BME280;5071;52.360;13.134;2023-03-04T03:10:16;101237.66;;;3.18;89.09
10064;BME280;5071;52.360;13.134;2023-03-04T03:15:20;101236.81;;;3.21;88.88
10064;BME280;5071;52.360;13.134;2023-03-04T03:20:22;101233.41;;;3.23;89.31
10064;BME280;5071;52.360;13.134;2023-03-04T03:25:24;101231.22;;;3.40;88.65
10064;BME280;5071;52.360;13.134;2023-03-04T03:30:27;101233.06;;;3.44;88.67
10064;BME280;5071;52.360;13.134;2023-03-04T03:35:29;101226.88;;;3.42;89.00
10064;BME280;5071;52.360;13.134;2023-03-04T03:40:32;101211.00;;;3.36;89.25
10064;BME280;5071;52.360;13.134;2023-03-04T03:45:35;101225.13;;;3.43;89.45
10064;BME280;5071;52.360;13.134;2023-03-04T03:50:37;101206.72;;;3.41;89.79
10064;BME280;5071;52.360;13.134;2023-03-04T03:55:39;101200.72;;;3.45;90.25
10064;BME280;5071;52.360;13.134;2023-03-04T04:00:42;101197.28;;;3.48;90.67
10064;BME280;5071;52.360;13.134;2023-03-04T04:05:44;101200.91;;;3.55;90.18
10064;BME280;5071;52.360;13.134;2023-03-04T04:10:51;101193.81;;;3.50;91.20
10064;BME280;5071;52.360;13.134;2023-03-04T04:15:54;101188.75;;;3.57;90.73
10064;BME280;5071;52.360;13.134;2023-03-04T04:20:57;101192.38;;;3.63;90.73
10064;BME280;5071;52.360;13.134;2023-03-04T04:25:59;101180.94;;;3.60;91.06
10064;BME280;5071;52.360;13.134;2023-03-04T04:31:05;101181.94;;;3.65;90.96
10064;BME280;5071;52.360;13.134;2023-03-04T04:36:10;101188.88;;;3.63;91.21
10064;BME280;5071;52.360;13.134;2023-03-04T04:41:19;101171.22;;;3.56;91.24
10064;BME280;5071;52.360;13.134;2023-03-04T04:46:23;101172.03;;;3.55;91.78
10064;BME280;5071;52.360;13.134;2023-03-04T04:51:25;101172.88;;;3.52;91.66
10064;BME280;5071;52.360;13.134;2023-03-04T04:56:27;101167.75;;;3.57;91.51
10064;BME280;5071;52.360;13.134;2023-03-04T05:01:31;101160.84;;;3.62;91.33
10064;BME280;5071;52.360;13.134;2023-03-04T05:06:33;101159.13;;;3.62;91.27
10064;BME280;5071;52.360;13.134;2023-03-04T05:11:35;101160.78;;;3.59;91.71
10064;BME280;5071;52.360;13.134;2023-03-04T05:16:39;101152.13;;;3.63;91.38
10064;BME280;5071;52.360;13.134;2023-03-04T05:21:41;101166.25;;;3.68;91.63
10064;BME280;5071;52.360;13.134;2023-03-04T05:26:43;101160.25;;;3.74;91.56
10064;BME280;5071;52.360;13.134;2023-03-04T05:31:47;101169.84;;;3.73;91.67
10064;BME280;5071;52.360;13.134;2023-03-04T05:36:49;101163.03;;;3.81;91.26
10064;BME280;5071;52.360;13.134;2023-03-04T05:41:51;101153.59;;;3.89;91.05
10064;BME280;5071;52.360;13.134;2023-03-04T05:46:54;101149.25;;;3.92;90.79
10064;BME280;5071;52.360;13.134;2023-03-04T05:51:56;101154.78;;;4.04;90.34
10064;BME280;5071;52.360;13.134;2023-03-04T05:56:58;101151.19;;;4.00;91.21
10064;BME280;5071;52.360;13.134;2023-03-04T06:02:02;101155.63;;;4.03;90.97
10064;BME280;5071;52.360;13.134;2023-03-04T06:07:04;101152.91;;;3.98;91.75
10064;BME280;5071;52.360;13.134;2023-03-04T06:12:07;101151.16;;;3.99;92.17
10064;BME280;5071;52.360;13.134;2023-03-04T06:17:11;101139.50;;;3.86;93.09
10064;BME280;5071;52.360;13.134;2023-03-04T06:22:13;101153.72;;;3.96;93.33
10064;BME280;5071;52.360;13.134;2023-03-04T06:27:15;101155.41;;;3.94;93.99
10064;BME280;5071;52.360;13.134;2023-03-04T06:32:18;101150.06;;;3.89;93.95
10064;BME280;5071;52.360;13.134;2023-03-04T06:37:20;101151.78;;;3.88;94.28
10064;BME280;5071;52.360;13.134;2023-03-04T06:42:23;101153.50;;;3.86;94.75
10064;BME280;5071;52.360;13.134;2023-03-04T06:47:26;101162.50;;;3.96;94.28
10064;BME280;5071;52.360;13.134;2023-03-04T06:52:30;101137.81;;;3.89;94.93
10064;BME280;5071;52.360;13.134;2023-03-04T06:57:32;101158.34;;;4.09;94.71
10064;BME280;5071;52.360;13.134;2023-03-04T07:02:36;101160.44;;;4.25;94.40
10064;BME280;5071;52.360;13.134;2023-03-04T07:07:38;101165.81;;;4.32;94.47
10064;BME280;5071;52.360;13.134;2023-03-04T07:12:41;101165.13;;;4.40;94.58
10064;BME280;5071;52.360;13.134;2023-03-04T07:17:45;101166.38;;;4.59;93.91
10064;BME280;5071;52.360;13.134;2023-03-04T07:22:48;101159.34;;;4.58;95.36
10064;BME280;5071;52.360;13.134;2023-03-04T07:27:50;101157.84;;;4.73;94.38
10064;BME280;5071;52.360;13.134;2023-03-04T07:32:55;101158.63;;;4.67;94.99
10064;BME280;5071;52.360;13.134;2023-03-04T07:37:58;101160.47;;;4.71;95.49
10064;BME280;5071;52.360;13.134;2023-03-04T07:43:01;101159.66;;;4.75;95.05
10064;BME280;5071;52.360;13.134;2023-03-04T07:48:05;101166.50;;;4.65;95.56
10064;BME280;5071;52.360;13.134;2023-03-04T07:53:07;101163.25;;;4.79;95.87
10064;BME280;5071;52.360;13.134;2023-03-04T07:58:09;101167.81;;;4.91;94.04
10064;BME280;5071;52.360;13.134;2023-03-04T08:03:12;101157.22;;;4.87;94.84
10064;BME280;5071;52.360;13.134;2023-03-04T08:08:14;101159.84;;;4.86;95.86
10064;BME280;5071;52.360;13.134;2023-03-04T08:13:18;101159.97;;;4.92;94.63
10064;BME280;5071;52.360;13.134;2023-03-04T08:18:21;101152.22;;;5.03;93.63
10064;BME280;5071;52.360;13.134;2023-03-04T08:23:23;101146.97;;;5.03;93.96
10064;BME280;5071;52.360;13.134;2023-03-04T08:28:25;101155.09;;;5.17;92.68
10064;BME280;5071;52.360;13.134;2023-03-04T08:33:28;101155.28;;;5.29;92.04
10064;BME280;5071;52.360;13.134;2023-03-04T08:38:31;101152.81;;;5.38;91.21
10064;BME280;5071;52.360;13.134;2023-03-04T08:43:40;101147.50;;;5.35;90.53
10064;BME280;5071;52.360;13.134;2023-03-04T08:48:44;101140.81;;;5.56;90.49
10064;BME280;5071;52.360;13.134;2023-03-04T08:53:46;101139.75;;;5.44;90.42
10064;BME280;5071;52.360;13.134;2023-03-04T08:58:48;101145.97;;;5.48;90.01
10064;BME280;5071;52.360;13.134;2023-03-04T09:03:51;101139.69;;;5.41;91.07
10064;BME280;5071;52.360;13.134;2023-03-04T09:08:53;101137.13;;;5.44;91.04
10064;BME280;5071;52.360;13.134;2023-03-04T09:13:55;101141.53;;;5.47;90.75
10064;BME280;5071;52.360;13.134;2023-03-04T09:18:59;101130.97;;;5.45;90.13
10064;BME280;5071;52.360;13.134;2023-03-04T09:24:01;101129.97;;;5.36;90.17
10064;BME280;5071;52.360;13.134;2023-03-04T09:29:03;101138.06;;;5.50;88.73
10064;BME280;5071;52.360;13.134;2023-03-04T09:34:07;101137.28;;;5.57;87.69
10064;BME280;5071;52.360;13.134;2023-03-04T09:39:09;101135.69;;;5.68;85.40
10064;BME280;5071;52.360;13.134;2023-03-04T09:44:17;101144.72;;;5.84;84.21
10064;BME280;5071;52.360;13.134;2023-03-04T09:49:23;101137.88;;;5.95;83.40
10064;BME280;5071;52.360;13.134;2023-03-04T09:54:49;101146.81;;;6.10;81.03
10064;BME280;5071;52.360;13.134;2023-03-04T10:00:04;101151.28;;;6.14;81.66
10064;BME280;5071;52.360;13.134;2023-03-04T10:05:12;101138.06;;;6.11;82.29
10064;BME280;5071;52.360;13.134;2023-03-04T10:10:18;101137.09;;;6.02;81.67
10064;BME280;5071;52.360;13.134;2023-03-04T10:15:32;101135.59;;;6.26;80.53
10064;BME280;5071;52.360;13.134;2023-03-04T10:20:46;101133.69;;;6.14;80.62
10064;BME280;5071;52.360;13.134;2023-03-04T10:25:54;101138.03;;;6.09;80.61
10064;BME280;5071;52.360;13.134;2023-03-04T10:30:59;101128.44;;;6.14;80.81
10064;BME280;5071;52.360;13.134;2023-03-04T10:36:05;101130.97;;;6.07;79.18
10064;BME280;5071;52.360;13.134;2023-03-04T10:41:19;101144.13;;;6.05;78.55
10064;BME280;5071;52.360;13.134;2023-03-04T10:46:22;101142.47;;;6.13;78.20
10064;BME280;5071;52.360;13.134;2023-03-04T10:51:29;101159.06;;;6.06;72.87
10064;BME280;5071;52.360;13.134;2023-03-04T10:56:34;101153.06;;;6.18;72.28
10064;BME280;5071;52.360;13.134;2023-03-04T11:01:37;101154.03;;;6.26;70.61
10064;BME280;5071;52.360;13.134;2023-03-04T11:06:48;101151.44;;;6.28;69.42
10064;BME280;5071;52.360;13.134;2023-03-04T11:11:52;101160.19;;;6.23;69.31
10064;BME280;5071;52.360;13.134;2023-03-04T11:16:55;101152.31;;;6.30;68.75
10064;BME280;5071;52.360;13.134;2023-03-04T11:22:00;101143.63;;;6.37;68.22
10064;BME280;5071;52.360;13.134;2023-03-04T11:27:05;101148.09;;;6.44;67.23
10064;BME280;5071;52.360;13.134;2023-03-04T11:32:12;101158.56;;;6.38;67.29
10064;BME280;5071;52.360;13.134;2023-03-04T11:37:24;101161.16;;;6.33;67.00
10064;BME280;5071;52.360;13.134;2023-03-04T11:42:33;101162.06;;;6.35;66.91
10064;BME280;5071;52.360;13.134;2023-03-04T11:47:49;101149.97;;;6.54;66.25
10064;BME280;5071;52.360;13.134;2023-03-04T11:53:09;101147.06;;;6.31;66.38
10064;BME280;5071;52.360;13.134;2023-03-04T12:04:06;101153.75;;;6.81;65.29
10064;BME280;5071;52.360;13.134;2023-03-04T12:09:27;101144.91;;;6.76;65.63
10064;BME280;5071;52.360;13.134;2023-03-04T12:14:36;101142.44;;;6.94;64.99
10064;BME280;5071;52.360;13.134;2023-03-04T12:19:53;101135.47;;;7.01;62.74
10064;BME280;5071;52.360;13.134;2023-03-04T12:25:34;101133.63;;;6.94;61.38
10064;BME280;5071;52.360;13.134;2023-03-04T12:30:46;101132.88;;;7.09;61.58
10064;BME280;5071;52.360;13.134;2023-03-04T12:36:02;101141.66;;;7.06;60.57
10064;BME280;5071;52.360;13.134;2023-03-04T12:41:21;101136.84;;;6.59;62.09
10064;BME280;5071;52.360;13.134;2023-03-04T12:46:36;101138.72;;;6.72;61.58
10064;BME280;5071;52.360;13.134;2023-03-04T12:51:48;101141.34;;;6.71;61.95
10064;BME280;5071;52.360;13.134;2023-03-04T12:56:57;101127.44;;;6.90;61.57
10064;BME280;5071;52.360;13.134;2023-03-04T13:02:13;101132.94;;;7.15;60.45
10064;BME280;5071;52.360;13.134;2023-03-04T13:07:38;101130.88;;;6.80;60.87
10064;BME280;5071;52.360;13.134;2023-03-04T13:12:48;101138.13;;;7.06;60.51
10064;BME280;5071;52.360;13.134;2023-03-04T13:17:52;101122.31;;;7.09;60.32
10064;BME280;5071;52.360;13.134;2023-03-04T13:22:56;101132.88;;;7.09;60.05
10064;BME280;5071;52.360;13.134;2023-03-04T13:28:21;101131.25;;;7.23;60.00
10064;BME280;5071;52.360;13.134;2023-03-04T13:33:44;101139.06;;;7.11;59.59
10064;BME280;5071;52.360;13.134;2023-03-04T13:38:57;101127.31;;;6.75;60.04
10064;BME280;5071;52.360;13.134;2023-03-04T13:44:01;101127.44;;;6.90;59.89
10064;BME280;5071;52.360;13.134;2023-03-04T13:49:03;101123.25;;;7.17;58.95
10064;BME280;5071;52.360;13.134;2023-03-04T13:54:12;101115.38;;;7.20;58.83
10064;BME280;5071;52.360;13.134;2023-03-04T13:59:26;101124.16;;;7.16;59.88
10064;BME280;5071;52.360;13.134;2023-03-04T14:04:32;101116.88;;;6.86;61.57
10064;BME280;5071;52.360;13.134;2023-03-04T14:09:34;101126.31;;;6.62;61.37
10064;BME280;5071;52.360;13.134;2023-03-04T14:14:46;101120.94;;;6.53;62.42
10064;BME280;5071;52.360;13.134;2023-03-04T14:19:53;101117.16;;;6.28;63.74
10064;BME280;5071;52.360;13.134;2023-03-04T14:25:00;101123.03;;;6.05;65.09
10064;BME280;5071;52.360;13.134;2023-03-04T14:30:06;101121.09;;;5.92;65.81
10064;BME280;5071;52.360;13.134;2023-03-04T14:35:18;101120.13;;;5.85;66.25
10064;BME280;5071;52.360;13.134;2023-03-04T14:40:24;101131.47;;;5.81;66.48
10064;BME280;5071;52.360;13.134;2023-03-04T14:45:28;101127.88;;;5.74;66.42
10064;BME280;5071;52.360;13.134;2023-03-04T14:50:30;101124.34;;;5.71;66.35
10064;BME280;5071;52.360;13.134;2023-03-04T14:55:32;101113.66;;;5.60;65.25
10064;BME280;5071;52.360;13.134;2023-03-04T15:00:37;101121.50;;;5.58;64.04
10064;BME280;5071;52.360;13.134;2023-03-04T15:05:40;101120.66;;;5.59;64.17
10064;BME280;5071;52.360;13.134;2023-03-04T15:10:52;101116.19;;;5.54;64.20
10064;BME280;5071;52.360;13.134;2023-03-04T15:16:00;101113.63;;;5.58;63.78
10064;BME280;5071;52.360;13.134;2023-03-04T15:21:04;101111.84;;;5.56;63.96
10064;BME280;5071;52.360;13.134;2023-03-04T15:26:08;101124.09;;;5.54;63.84
10064;BME280;5071;52.360;13.134;2023-03-04T15:31:16;101117.06;;;5.53;63.43
10064;BME280;5071;52.360;13.134;2023-03-04T15:36:21;101113.50;;;5.51;62.84
10064;BME280;5071;52.360;13.134;2023-03-04T15:41:24;101112.59;;;5.47;62.81
10064;BME280;5071;52.360;13.134;2023-03-04T15:46:29;101115.03;;;5.36;63.44
10064;BME280;5071;52.360;13.134;2023-03-04T15:51:31;101109.75;;;5.33;63.47
10064;BME280;5071;52.360;13.134;2023-03-04T15:56:33;101115.88;;;5.32;63.03
10064;BME280;5071;52.360;13.134;2023-03-04T16:01:37;101113.16;;;5.26;63.46
10064;BME280;5071;52.360;13.134;2023-03-04T16:06:39;101112.25;;;5.24;63.55
10064;BME280;5071;52.360;13.134;2023-03-04T16:11:43;101106.88;;;5.18;62.34
10064;BME280;5071;52.360;13.134;2023-03-04T16:16:47;101096.31;;;5.15;62.46
10064;BME280;5071;52.360;13.134;2023-03-04T16:21:49;101104.28;;;5.21;62.56
10064;BME280;5071;52.360;13.134;2023-03-04T16:26:51;101104.06;;;5.05;62.59
10064;BME280;5071;52.360;13.134;2023-03-04T16:31:54;101080.16;;;4.93;63.12
10064;BME280;5071;52.360;13.134;2023-03-04T16:36:57;101081.13;;;4.98;62.62
10064;BME280;5071;52.360;13.134;2023-03-04T16:41:59;101092.22;;;4.80;63.09
10064;BME280;5071;52.360;13.134;2023-03-04T16:47:03;101081.56;;;4.70;63.31
10064;BME280;5071;52.360;13.134;2023-03-04T16:52:06;101107.56;;;4.54;63.99
10064;BME280;5071;52.360;13.134;2023-03-04T16:57:09;101100.44;;;4.48;65.04
10064;BME280;5071;52.360;13.134;2023-03-04T17:02:18;101098.16;;;4.20;66.31
10064;BME280;5071;52.360;13.134;2023-03-04T17:07:20;101109.63;;;4.23;67.16
10064;BME280;5071;52.360;13.134;2023-03-04T17:12:22;101107.34;;;4.42;67.04
10064;BME280;5071;52.360;13.134;2023-03-04T17:17:25;101116.97;;;4.41;67.38
10064;BME280;5071;52.360;13.134;2023-03-04T17:22:27;101129.03;;;4.32;67.88
10064;BME280;5071;52.360;13.134;2023-03-04T17:27:29;101139.63;;;4.35;68.45
10064;BME280;5071;52.360;13.134;2023-03-04T17:32:33;101123.84;;;4.35;68.64
10064;BME280;5071;52.360;13.134;2023-03-04T17:37:35;101135.81;;;4.20;69.48
10064;BME280;5071;52.360;13.134;2023-03-04T17:42:38;101140.28;;;4.23;69.75
10064;BME280;5071;52.360;13.134;2023-03-04T17:47:41;101137.53;;;4.18;69.98
10064;BME280;5071;52.360;13.134;2023-03-04T17:52:43;101135.97;;;4.26;70.04
10064;BME280;5071;52.360;13.134;2023-03-04T17:57:44;101144.94;;;4.38;69.81
10064;BME280;5071;52.360;13.134;2023-03-04T18:02:48;101141.44;;;4.39;69.90
10064;BME280;5071;52.360;13.134;2023-03-04T18:07:50;101142.97;;;4.27;70.07
10064;BME280;5071;52.360;13.134;2023-03-04T18:12:52;101134.94;;;4.20;71.06
10064;BME280;5071;52.360;13.134;2023-03-04T18:17:56;101137.41;;;4.12;71.27
10064;BME280;5071;52.360;13.134;2023-03-04T18:23:00;101128.50;;;4.04;71.89
10064;BME280;5071;52.360;13.134;2023-03-04T18:28:02;101134.91;;;4.18;71.39
10064;BME280;5071;52.360;13.134;2023-03-04T18:33:06;101116.66;;;4.24;70.90
10064;BME280;5071;52.360;13.134;2023-03-04T18:38:08;101131.31;;;4.13;71.70
10064;BME280;5071;52.360;13.134;2023-03-04T18:43:13;101121.88;;;4.23;71.10
10064;BME280;5071;52.360;13.134;2023-03-04T18:48:17;101119.94;;;4.14;71.37
10064;BME280;5071;52.360;13.134;2023-03-04T18:53:19;101125.97;;;4.08;71.62
10064;BME280;5071;52.360;13.134;2023-03-04T18:58:21;101124.22;;;4.07;71.57
10064;BME280;5071;52.360;13.134;2023-03-04T19:03:24;101128.44;;;4.01;72.08
10064;BME280;5071;52.360;13.134;2023-03-04T19:08:26;101133.50;;;3.92;72.68
10064;BME280;5071;52.360;13.134;2023-03-04T19:13:28;101122.91;;;3.88;72.75
10064;BME280;5071;52.360;13.134;2023-03-04T19:18:32;101132.00;;;4.04;72.02
10064;BME280;5071;52.360;13.134;2023-03-04T19:23:34;101134.38;;;3.91;72.38
10064;BME280;5071;52.360;13.134;2023-03-04T19:28:36;101133.16;;;3.76;73.01
10064;BME280;5071;52.360;13.134;2023-03-04T19:33:40;101133.25;;;3.79;72.98
10064;BME280;5071;52.360;13.134;2023-03-04T19:38:41;101141.28;;;3.87;72.95
10064;BME280;5071;52.360;13.134;2023-03-04T19:43:44;101136.28;;;3.99;72.94
10064;BME280;5071;52.360;13.134;2023-03-04T19:48:48;101138.78;;;3.93;73.06
10064;BME280;5071;52.360;13.134;2023-03-04T19:53:54;101137.53;;;3.76;74.53
10064;BME280;5071;52.360;13.134;2023-03-04T19:58:56;101134.03;;;3.77;74.75
10064;BME280;5071;52.360;13.134;2023-03-04T20:04:01;101141.88;;;3.75;75.62
10064;BME280;5071;52.360;13.134;2023-03-04T20:09:04;101138.28;;;3.70;76.13
10064;BME280;5071;52.360;13.134;2023-03-04T20:14:06;101140.25;;;3.80;75.72
10064;BME280;5071;52.360;13.134;2023-03-04T20:19:10;101141.00;;;3.75;76.08
10064;BME280;5071;52.360;13.134;2023-03-04T20:24:12;101135.75;;;3.75;75.73
10064;BME280;5071;52.360;13.134;2023-03-04T20:29:14;101143.50;;;3.68;76.34
10064;BME280;5071;52.360;13.134;2023-03-04T20:34:18;101139.25;;;3.74;76.44
10064;BME280;5071;52.360;13.134;2023-03-04T20:39:19;101148.88;;;3.75;76.54
10064;BME280;5071;52.360;13.134;2023-03-04T20:44:30;101148.03;;;3.76;76.39
10064;BME280;5071;52.360;13.134;2023-03-04T20:49:34;101142.09;;;3.84;75.77
10064;BME280;5071;52.360;13.134;2023-03-04T20:54:37;101137.44;;;3.71;76.04
10064;BME280;5071;52.360;13.134;2023-03-04T20:59:40;101140.88;;;3.68;75.64
10064;BME280;5071;52.360;13.134;2023-03-04T21:04:44;101131.91;;;3.59;76.48
10064;BME280;5071;52.360;13.134;2023-03-04T21:09:46;101130.06;;;3.55;76.34
10064;BME280;5071;52.360;13.134;2023-03-04T21:14:48;101141.50;;;3.57;75.97
10064;BME280;5071;52.360;13.134;2023-03-04T21:19:51;101136.97;;;3.49;76.22
10064;BME280;5071;52.360;13.134;2023-03-04T21:24:54;101127.09;;;3.39;76.81
10064;BME280;5071;52.360;13.134;2023-03-04T21:29:56;101123.28;;;3.25;77.87
10064;BME280;5071;52.360;13.134;2023-03-04T21:34:59;101120.97;;;3.39;77.51
10064;BME280;5071;52.360;13.134;2023-03-04T21:40:02;101114.53;;;3.26;78.04
10064;BME280;5071;52.360;13.134;2023-03-04T21:45:06;101119.16;;;3.38;78.90
10064;BME280;5071;52.360;13.134;2023-03-04T21:50:10;101118.44;;;3.43;78.71
10064;BME280;5071;52.360;13.134;2023-03-04T21:55:12;101119.91;;;3.32;79.26
10064;BME280;5071;52.360;13.134;2023-03-04T22:00:14;101103.25;;;3.28;79.96
10064;BME280;5071;52.360;13.134;2023-03-04T22:05:17;101096.22;;;3.27;79.61
10064;BME280;5071;52.360;13.134;2023-03-04T22:10:20;101091.81;;;3.25;79.37
10064;BME280;5071;52.360;13.134;2023-03-04T22:15:22;101092.63;;;3.24;79.85
10064;BME280;5071;52.360;13.134;2023-03-04T22:20:26;101086.34;;;3.17;79.50
10064;BME280;5071;52.360;13.134;2023-03-04T22:25:28;101082.78;;;3.14;79.64
10064;BME280;5071;52.360;13.134;2023-03-04T22:30:30;101086.25;;;3.13;79.27
10064;BME280;5071;52.360;13.134;2023-03-04T22:35:37;101086.25;;;3.13;79.60
10064;BME280;5071;52.360;13.134;2023-03-04T22:40:42;101082.84;;;3.17;79.32
10064;BME280;5071;52.360;13.134;2023-03-04T22:45:45;101074.75;;;3.07;79.38
10064;BME280;5071;52.360;13.134;2023-03-04T22:50:49;101067.06;;;3.14;79.09
10064;BME280;5071;52.360;13.134;2023-03-04T22:55:56;101066.97;;;3.10;78.94
10064;BME280;5071;52.360;13.134;2023-03-04T23:00:58;101068.69;;;3.08;78.52
10064;BME280;5071;52.360;13.134;2023-03-04T23:06:04;101058.31;;;3.15;77.78
10064;BME280;5071;52.360;13.134;2023-03-04T23:11:08;101049.53;;;3.13;77.71
10064;BME280;5071;52.360;13.134;2023-03-04T23:16:12;101045.03;;;3.07;77.46
10064;BME280;5071;52.360;13.134;2023-03-04T23:21:17;101043.44;;;3.14;77.58
10064;BME280;5071;52.360;13.134;2023-03-04T23:26:22;101051.28;;;3.12;77.01
10064;BME280;5071;52.360;13.134;2023-03-04T23:31:24;101046.06;;;3.14;77.19
10064;BME280;5071;52.360;13.134;2023-03-04T23:36:30;101031.97;;;3.08;77.48
10064;BME280;5071;52.360;13.134;2023-03-04T23:41:34;101037.13;;;3.05;77.94
10064;BME280;5071;52.360;13.134;2023-03-04T23:46:36;101029.16;;;3.01;78.50
10064;BME280;5071;52.360;13.134;2023-03-04T23:51:39;101030.88;;;2.99;79.40
10064;BME280;5071;52.360;13.134;2023-03-04T23:56:41;101029.13;;;2.99;80.27
